sensor_id;sensor_type;location;lat;lon;timestamp;temperature;humidity
44533;DHT22;48673;53.016;-2.258;2022-08-21T00:01:51;14.60;80.00
44533;DHT22;48673;53.016;-2.258;2022-08-21T00:04:19;14.50;80.10
44533;DHT22;48673;53.016;-2.258;2022-08-21T00:06:51;14.50;80.10
44533;DHT22;48673;53.016;-2.258;2022-08-21T00:09:19;14.50;80.20
44533;DHT22;48673;53.016;-2.258;2022-08-21T00:11:47;14.50;80.40
44533;DHT22;48673;53.016;-2.258;2022-08-21T00:14:15;14.40;80.40
44533;DHT22;48673;53.016;-2.258;2022-08-21T00:16:43;14.40;80.60
44533;DHT22;48673;53.016;-2.258;2022-08-21T00:19:11;14.40;80.70
44533;DHT22;48673;53.016;-2.258;2022-08-21T00:21:39;14.40;80.70
44533;DHT22;48673;53.016;-2.258;2022-08-21T00:24:11;14.40;80.80
44533;DHT22;48673;53.016;-2.258;2022-08-21T00:26:39;14.40;80.90
44533;DHT22;48673;53.016;-2.258;2022-08-21T00:29:07;14.30;81.00
44533;DHT22;48673;53.016;-2.258;2022-08-21T00:31:34;14.30;81.10
44533;DHT22;48673;53.016;-2.258;2022-08-21T00:34:03;14.20;81.10
44533;DHT22;48673;53.016;-2.258;2022-08-21T00:36:30;14.20;81.20
44533;DHT22;48673;53.016;-2.258;2022-08-21T00:38:58;14.20;81.20
44533;DHT22;48673;53.016;-2.258;2022-08-21T00:41:27;14.20;81.40
44533;DHT22;48673;53.016;-2.258;2022-08-21T00:44:08;14.10;81.40
44533;DHT22;48673;53.016;-2.258;2022-08-21T00:46:37;14.10;81.60
44533;DHT22;48673;53.016;-2.258;2022-08-21T00:49:06;14.00;81.70
44533;DHT22;48673;53.016;-2.258;2022-08-21T00:51:42;14.00;81.80
44533;DHT22;48673;53.016;-2.258;2022-08-21T00:54:11;14.00;82.00
44533;DHT22;48673;53.016;-2.258;2022-08-21T00:56:49;13.90;82.00
44533;DHT22;48673;53.016;-2.258;2022-08-21T00:59:19;13.90;82.20
44533;DHT22;48673;53.016;-2.258;2022-08-21T01:01:49;13.90;82.20
44533;DHT22;48673;53.016;-2.258;2022-08-21T01:04:17;13.90;82.30
44533;DHT22;48673;53.016;-2.258;2022-08-21T01:06:46;13.90;82.40
44533;DHT22;48673;53.016;-2.258;2022-08-21T01:09:14;13.90;82.50
44533;DHT22;48673;53.016;-2.258;2022-08-21T01:11:42;13.90;82.60
44533;DHT22;48673;53.016;-2.258;2022-08-21T01:14:14;13.80;82.70
44533;DHT22;48673;53.016;-2.258;2022-08-21T01:16:44;13.80;82.80
44533;DHT22;48673;53.016;-2.258;2022-08-21T01:19:13;13.80;82.80
44533;DHT22;48673;53.016;-2.258;2022-08-21T01:21:42;13.80;82.90
44533;DHT22;48673;53.016;-2.258;2022-08-21T01:24:11;13.80;83.00
44533;DHT22;48673;53.016;-2.258;2022-08-21T01:26:39;13.80;83.20
44533;DHT22;48673;53.016;-2.258;2022-08-21T01:31:35;13.70;83.20
44533;DHT22;48673;53.016;-2.258;2022-08-21T01:34:04;13.70;83.30
44533;DHT22;48673;53.016;-2.258;2022-08-21T01:36:33;13.70;83.40
44533;DHT22;48673;53.016;-2.258;2022-08-21T01:39:03;13.70;83.40
44533;DHT22;48673;53.016;-2.258;2022-08-21T01:41:31;13.70;83.60
44533;DHT22;48673;53.016;-2.258;2022-08-21T01:43:59;13.70;83.60
44533;DHT22;48673;53.016;-2.258;2022-08-21T01:46:27;13.70;83.70
44533;DHT22;48673;53.016;-2.258;2022-08-21T01:48:54;13.70;83.70
44533;DHT22;48673;53.016;-2.258;2022-08-21T01:51:22;13.60;83.70
44533;DHT22;48673;53.016;-2.258;2022-08-21T01:53:50;13.60;83.80
44533;DHT22;48673;53.016;-2.258;2022-08-21T01:56:18;13.60;83.90
44533;DHT22;48673;53.016;-2.258;2022-08-21T01:58:47;13.60;83.90
44533;DHT22;48673;53.016;-2.258;2022-08-21T02:01:15;13.60;84.00
44533;DHT22;48673;53.016;-2.258;2022-08-21T02:03:43;13.50;84.10
44533;DHT22;48673;53.016;-2.258;2022-08-21T02:06:15;13.60;84.10
44533;DHT22;48673;53.016;-2.258;2022-08-21T02:08:46;13.60;84.20
44533;DHT22;48673;53.016;-2.258;2022-08-21T02:11:14;13.60;84.20
44533;DHT22;48673;53.016;-2.258;2022-08-21T02:13:41;13.50;84.20
44533;DHT22;48673;53.016;-2.258;2022-08-21T02:16:11;13.50;84.30
44533;DHT22;48673;53.016;-2.258;2022-08-21T02:18:46;13.40;84.40
44533;DHT22;48673;53.016;-2.258;2022-08-21T02:21:14;13.40;84.50
44533;DHT22;48673;53.016;-2.258;2022-08-21T02:23:42;13.40;84.60
44533;DHT22;48673;53.016;-2.258;2022-08-21T02:26:10;13.40;84.70
44533;DHT22;48673;53.016;-2.258;2022-08-21T02:28:38;13.40;84.70
44533;DHT22;48673;53.016;-2.258;2022-08-21T02:31:06;13.40;84.80
44533;DHT22;48673;53.016;-2.258;2022-08-21T02:33:34;13.40;84.80
44533;DHT22;48673;53.016;-2.258;2022-08-21T02:36:03;13.50;84.90
44533;DHT22;48673;53.016;-2.258;2022-08-21T02:38:33;13.50;84.90
44533;DHT22;48673;53.016;-2.258;2022-08-21T02:41:02;13.50;85.00
44533;DHT22;48673;53.016;-2.258;2022-08-21T02:43:29;13.50;84.90
44533;DHT22;48673;53.016;-2.258;2022-08-21T02:45:58;13.50;84.90
44533;DHT22;48673;53.016;-2.258;2022-08-21T02:48:28;13.60;85.00
44533;DHT22;48673;53.016;-2.258;2022-08-21T02:50:59;13.60;85.00
44533;DHT22;48673;53.016;-2.258;2022-08-21T02:53:29;13.60;85.00
44533;DHT22;48673;53.016;-2.258;2022-08-21T02:55:59;13.60;85.00
44533;DHT22;48673;53.016;-2.258;2022-08-21T02:58:30;13.50;85.00
44533;DHT22;48673;53.016;-2.258;2022-08-21T03:00:59;13.60;85.00
44533;DHT22;48673;53.016;-2.258;2022-08-21T03:03:27;13.60;85.00
44533;DHT22;48673;53.016;-2.258;2022-08-21T03:05:56;13.60;85.00
44533;DHT22;48673;53.016;-2.258;2022-08-21T03:08:24;13.60;85.00
44533;DHT22;48673;53.016;-2.258;2022-08-21T03:10:54;13.60;85.10
44533;DHT22;48673;53.016;-2.258;2022-08-21T03:13:22;13.60;85.10
44533;DHT22;48673;53.016;-2.258;2022-08-21T03:15:50;13.60;85.10
44533;DHT22;48673;53.016;-2.258;2022-08-21T03:18:17;13.60;85.10
44533;DHT22;48673;53.016;-2.258;2022-08-21T03:20:46;13.60;85.10
44533;DHT22;48673;53.016;-2.258;2022-08-21T03:23:15;13.70;85.20
44533;DHT22;48673;53.016;-2.258;2022-08-21T03:25:46;13.70;85.10
44533;DHT22;48673;53.016;-2.258;2022-08-21T03:28:16;13.70;85.20
44533;DHT22;48673;53.016;-2.258;2022-08-21T03:30:46;13.60;85.10
44533;DHT22;48673;53.016;-2.258;2022-08-21T03:33:15;13.60;85.20
44533;DHT22;48673;53.016;-2.258;2022-08-21T03:36:07;13.60;85.20
44533;DHT22;48673;53.016;-2.258;2022-08-21T03:38:35;13.60;85.20
44533;DHT22;48673;53.016;-2.258;2022-08-21T03:41:04;13.60;85.10
44533;DHT22;48673;53.016;-2.258;2022-08-21T03:43:32;13.60;85.10
44533;DHT22;48673;53.016;-2.258;2022-08-21T03:46:04;13.60;85.10
44533;DHT22;48673;53.016;-2.258;2022-08-21T03:48:34;13.60;85.20
44533;DHT22;48673;53.016;-2.258;2022-08-21T03:51:02;13.60;85.10
44533;DHT22;48673;53.016;-2.258;2022-08-21T03:53:30;13.70;85.10
44533;DHT22;48673;53.016;-2.258;2022-08-21T03:55:58;13.60;85.10
44533;DHT22;48673;53.016;-2.258;2022-08-21T03:58:27;13.60;85.10
44533;DHT22;48673;53.016;-2.258;2022-08-21T04:00:57;13.60;85.20
44533;DHT22;48673;53.016;-2.258;2022-08-21T04:03:26;13.60;85.20
44533;DHT22;48673;53.016;-2.258;2022-08-21T04:05:54;13.50;85.30
44533;DHT22;48673;53.016;-2.258;2022-08-21T04:08:22;13.50;85.40
44533;DHT22;48673;53.016;-2.258;2022-08-21T04:10:51;13.50;85.50
44533;DHT22;48673;53.016;-2.258;2022-08-21T04:13:20;13.60;85.50
44533;DHT22;48673;53.016;-2.258;2022-08-21T04:15:48;13.60;85.50
44533;DHT22;48673;53.016;-2.258;2022-08-21T04:18:16;13.60;85.40
44533;DHT22;48673;53.016;-2.258;2022-08-21T04:20:46;13.70;85.40
44533;DHT22;48673;53.016;-2.258;2022-08-21T04:23:22;13.70;85.40
44533;DHT22;48673;53.016;-2.258;2022-08-21T04:25:53;13.70;85.30
44533;DHT22;48673;53.016;-2.258;2022-08-21T04:28:22;13.70;85.30
44533;DHT22;48673;53.016;-2.258;2022-08-21T04:30:56;13.80;85.30
44533;DHT22;48673;53.016;-2.258;2022-08-21T04:33:24;13.80;85.20
44533;DHT22;48673;53.016;-2.258;2022-08-21T04:35:52;13.90;85.10
44533;DHT22;48673;53.016;-2.258;2022-08-21T04:38:21;13.90;85.10
44533;DHT22;48673;53.016;-2.258;2022-08-21T04:40:50;13.90;85.10
44533;DHT22;48673;53.016;-2.258;2022-08-21T04:43:18;14.00;85.10
44533;DHT22;48673;53.016;-2.258;2022-08-21T04:45:48;14.00;84.90
44533;DHT22;48673;53.016;-2.258;2022-08-21T04:48:19;14.10;84.80
44533;DHT22;48673;53.016;-2.258;2022-08-21T04:50:52;14.20;84.60
44533;DHT22;48673;53.016;-2.258;2022-08-21T04:56:14;14.30;84.40
44533;DHT22;48673;53.016;-2.258;2022-08-21T04:58:42;14.40;84.30
44533;DHT22;48673;53.016;-2.258;2022-08-21T05:01:13;14.40;84.20
44533;DHT22;48673;53.016;-2.258;2022-08-21T05:03:43;14.40;84.20
44533;DHT22;48673;53.016;-2.258;2022-08-21T05:06:13;14.50;84.10
44533;DHT22;48673;53.016;-2.258;2022-08-21T05:08:44;14.50;84.00
44533;DHT22;48673;53.016;-2.258;2022-08-21T05:11:13;14.60;83.90
44533;DHT22;48673;53.016;-2.258;2022-08-21T05:13:41;14.70;83.80
44533;DHT22;48673;53.016;-2.258;2022-08-21T05:16:09;14.70;83.70
44533;DHT22;48673;53.016;-2.258;2022-08-21T05:18:37;14.80;83.60
44533;DHT22;48673;53.016;-2.258;2022-08-21T05:21:05;14.80;83.50
44533;DHT22;48673;53.016;-2.258;2022-08-21T05:23:32;14.90;83.40
44533;DHT22;48673;53.016;-2.258;2022-08-21T05:26:01;14.90;83.30
44533;DHT22;48673;53.016;-2.258;2022-08-21T05:28:28;14.90;83.30
44533;DHT22;48673;53.016;-2.258;2022-08-21T05:30:56;14.90;83.20
44533;DHT22;48673;53.016;-2.258;2022-08-21T05:33:24;14.90;83.10
44533;DHT22;48673;53.016;-2.258;2022-08-21T05:35:53;14.90;83.10
44533;DHT22;48673;53.016;-2.258;2022-08-21T05:38:26;14.90;83.10
44533;DHT22;48673;53.016;-2.258;2022-08-21T05:40:55;15.00;83.00
44533;DHT22;48673;53.016;-2.258;2022-08-21T05:43:23;15.00;82.90
44533;DHT22;48673;53.016;-2.258;2022-08-21T05:45:51;15.00;82.80
44533;DHT22;48673;53.016;-2.258;2022-08-21T05:48:23;15.00;82.80
44533;DHT22;48673;53.016;-2.258;2022-08-21T05:50:52;15.00;82.80
44533;DHT22;48673;53.016;-2.258;2022-08-21T05:53:21;15.10;82.70
44533;DHT22;48673;53.016;-2.258;2022-08-21T05:55:51;15.10;82.70
44533;DHT22;48673;53.016;-2.258;2022-08-21T05:58:20;15.20;82.70
44533;DHT22;48673;53.016;-2.258;2022-08-21T06:00:49;15.20;82.60
44533;DHT22;48673;53.016;-2.258;2022-08-21T06:03:21;15.30;82.50
44533;DHT22;48673;53.016;-2.258;2022-08-21T06:05:49;15.30;82.50
44533;DHT22;48673;53.016;-2.258;2022-08-21T06:08:18;15.40;82.40
44533;DHT22;48673;53.016;-2.258;2022-08-21T06:10:46;15.40;82.40
44533;DHT22;48673;53.016;-2.258;2022-08-21T06:13:16;15.40;82.20
44533;DHT22;48673;53.016;-2.258;2022-08-21T06:15:44;15.40;82.10
44533;DHT22;48673;53.016;-2.258;2022-08-21T06:18:12;15.40;82.10
44533;DHT22;48673;53.016;-2.258;2022-08-21T06:20:40;15.40;82.00
44533;DHT22;48673;53.016;-2.258;2022-08-21T06:23:09;15.40;82.00
44533;DHT22;48673;53.016;-2.258;2022-08-21T06:25:36;15.40;81.90
44533;DHT22;48673;53.016;-2.258;2022-08-21T06:28:07;15.40;82.00
44533;DHT22;48673;53.016;-2.258;2022-08-21T06:30:37;15.40;81.90
44533;DHT22;48673;53.016;-2.258;2022-08-21T06:33:07;15.40;81.90
44533;DHT22;48673;53.016;-2.258;2022-08-21T06:35:35;15.40;81.90
44533;DHT22;48673;53.016;-2.258;2022-08-21T06:38:07;15.40;81.90
44533;DHT22;48673;53.016;-2.258;2022-08-21T06:40:36;15.40;82.00
44533;DHT22;48673;53.016;-2.258;2022-08-21T06:43:15;15.40;82.00
44533;DHT22;48673;53.016;-2.258;2022-08-21T06:45:43;15.40;82.00
44533;DHT22;48673;53.016;-2.258;2022-08-21T06:48:11;15.40;81.90
44533;DHT22;48673;53.016;-2.258;2022-08-21T06:50:47;15.50;81.90
44533;DHT22;48673;53.016;-2.258;2022-08-21T06:53:18;15.50;81.90
44533;DHT22;48673;53.016;-2.258;2022-08-21T06:55:47;15.60;81.80
44533;DHT22;48673;53.016;-2.258;2022-08-21T06:58:15;15.70;81.80
44533;DHT22;48673;53.016;-2.258;2022-08-21T07:00:45;15.80;81.60
44533;DHT22;48673;53.016;-2.258;2022-08-21T07:03:32;15.80;81.60
44533;DHT22;48673;53.016;-2.258;2022-08-21T07:06:00;15.90;81.40
44533;DHT22;48673;53.016;-2.258;2022-08-21T07:08:28;16.00;81.30
44533;DHT22;48673;53.016;-2.258;2022-08-21T07:10:57;16.10;80.90
44533;DHT22;48673;53.016;-2.258;2022-08-21T07:13:26;16.10;80.70
44533;DHT22;48673;53.016;-2.258;2022-08-21T07:15:53;16.20;80.60
44533;DHT22;48673;53.016;-2.258;2022-08-21T07:18:21;16.30;80.40
44533;DHT22;48673;53.016;-2.258;2022-08-21T07:20:49;16.30;80.30
44533;DHT22;48673;53.016;-2.258;2022-08-21T07:23:28;16.30;80.00
44533;DHT22;48673;53.016;-2.258;2022-08-21T07:25:56;16.20;80.00
44533;DHT22;48673;53.016;-2.258;2022-08-21T07:28:24;16.20;80.20
44533;DHT22;48673;53.016;-2.258;2022-08-21T07:30:56;16.00;80.40
44533;DHT22;48673;53.016;-2.258;2022-08-21T07:33:28;16.10;80.50
44533;DHT22;48673;53.016;-2.258;2022-08-21T07:35:56;16.00;80.70
44533;DHT22;48673;53.016;-2.258;2022-08-21T07:38:24;16.00;81.00
44533;DHT22;48673;53.016;-2.258;2022-08-21T07:40:54;16.10;80.80
44533;DHT22;48673;53.016;-2.258;2022-08-21T07:43:22;16.20;80.40
44533;DHT22;48673;53.016;-2.258;2022-08-21T07:45:50;16.30;80.50
44533;DHT22;48673;53.016;-2.258;2022-08-21T07:48:18;16.40;80.40
44533;DHT22;48673;53.016;-2.258;2022-08-21T07:50:46;16.50;80.50
44533;DHT22;48673;53.016;-2.258;2022-08-21T07:53:14;16.60;80.50
44533;DHT22;48673;53.016;-2.258;2022-08-21T07:55:42;16.80;80.50
44533;DHT22;48673;53.016;-2.258;2022-08-21T07:58:10;16.90;80.30
44533;DHT22;48673;53.016;-2.258;2022-08-21T08:00:37;16.90;80.10
44533;DHT22;48673;53.016;-2.258;2022-08-21T08:03:09;16.90;80.10
44533;DHT22;48673;53.016;-2.258;2022-08-21T08:05:37;17.00;80.00
44533;DHT22;48673;53.016;-2.258;2022-08-21T08:08:06;17.10;79.80
44533;DHT22;48673;53.016;-2.258;2022-08-21T08:10:35;17.10;79.60
44533;DHT22;48673;53.016;-2.258;2022-08-21T08:13:02;17.10;79.40
44533;DHT22;48673;53.016;-2.258;2022-08-21T08:15:30;17.10;79.20
44533;DHT22;48673;53.016;-2.258;2022-08-21T08:18:04;17.00;79.20
44533;DHT22;48673;53.016;-2.258;2022-08-21T08:20:31;17.00;79.20
44533;DHT22;48673;53.016;-2.258;2022-08-21T08:23:00;16.90;79.10
44533;DHT22;48673;53.016;-2.258;2022-08-21T08:25:28;16.90;79.00
44533;DHT22;48673;53.016;-2.258;2022-08-21T08:28:04;16.90;78.90
44533;DHT22;48673;53.016;-2.258;2022-08-21T08:30:45;16.90;79.00
44533;DHT22;48673;53.016;-2.258;2022-08-21T08:33:14;17.00;79.00
44533;DHT22;48673;53.016;-2.258;2022-08-21T08:35:47;17.20;78.70
44533;DHT22;48673;53.016;-2.258;2022-08-21T08:38:17;17.40;78.40
44533;DHT22;48673;53.016;-2.258;2022-08-21T08:43:21;17.60;77.50
44533;DHT22;48673;53.016;-2.258;2022-08-21T08:45:51;17.70;76.90
44533;DHT22;48673;53.016;-2.258;2022-08-21T08:51:27;17.80;75.60
44533;DHT22;48673;53.016;-2.258;2022-08-21T08:54:05;17.90;75.20
44533;DHT22;48673;53.016;-2.258;2022-08-21T08:56:36;17.90;74.70
44533;DHT22;48673;53.016;-2.258;2022-08-21T08:59:15;17.90;74.40
44533;DHT22;48673;53.016;-2.258;2022-08-21T09:01:45;18.00;73.80
44533;DHT22;48673;53.016;-2.258;2022-08-21T09:04:23;18.00;73.70
44533;DHT22;48673;53.016;-2.258;2022-08-21T09:09:44;17.90;73.70
44533;DHT22;48673;53.016;-2.258;2022-08-21T09:26:36;17.80;73.00
44533;DHT22;48673;53.016;-2.258;2022-08-21T09:29:10;17.90;73.10
44533;DHT22;48673;53.016;-2.258;2022-08-21T09:31:39;17.90;72.80
44533;DHT22;48673;53.016;-2.258;2022-08-21T09:34:10;18.00;72.40
44533;DHT22;48673;53.016;-2.258;2022-08-21T09:39:11;18.40;72.20
44533;DHT22;48673;53.016;-2.258;2022-08-21T09:41:40;18.50;71.80
44533;DHT22;48673;53.016;-2.258;2022-08-21T09:44:08;18.70;71.30
44533;DHT22;48673;53.016;-2.258;2022-08-21T09:46:36;18.90;69.80
44533;DHT22;48673;53.016;-2.258;2022-08-21T09:49:04;18.80;68.30
44533;DHT22;48673;53.016;-2.258;2022-08-21T09:51:36;18.90;68.10
44533;DHT22;48673;53.016;-2.258;2022-08-21T09:59:37;18.80;67.90
44533;DHT22;48673;53.016;-2.258;2022-08-21T10:02:34;18.80;67.80
44533;DHT22;48673;53.016;-2.258;2022-08-21T10:05:08;18.70;67.30
44533;DHT22;48673;53.016;-2.258;2022-08-21T10:07:43;18.60;67.30
44533;DHT22;48673;53.016;-2.258;2022-08-21T10:10:26;18.40;67.40
44533;DHT22;48673;53.016;-2.258;2022-08-21T10:15:56;18.40;68.00
44533;DHT22;48673;53.016;-2.258;2022-08-21T10:19:01;18.60;67.90
44533;DHT22;48673;53.016;-2.258;2022-08-21T10:22:00;18.80;67.70
44533;DHT22;48673;53.016;-2.258;2022-08-21T10:31:13;19.70;66.60
44533;DHT22;48673;53.016;-2.258;2022-08-21T10:39:52;20.80;63.30
44533;DHT22;48673;53.016;-2.258;2022-08-21T10:42:28;21.00;62.50
44533;DHT22;48673;53.016;-2.258;2022-08-21T10:47:55;21.40;61.10
44533;DHT22;48673;53.016;-2.258;2022-08-21T10:56:28;21.20;61.10
44533;DHT22;48673;53.016;-2.258;2022-08-21T11:01:33;21.20;60.60
44533;DHT22;48673;53.016;-2.258;2022-08-21T11:04:14;21.30;60.50
44533;DHT22;48673;53.016;-2.258;2022-08-21T11:06:52;21.30;60.10
44533;DHT22;48673;53.016;-2.258;2022-08-21T11:09:24;21.40;59.40
44533;DHT22;48673;53.016;-2.258;2022-08-21T11:12:03;21.20;59.50
44533;DHT22;48673;53.016;-2.258;2022-08-21T11:14:56;21.20;59.40
44533;DHT22;48673;53.016;-2.258;2022-08-21T11:17:41;21.20;59.50
44533;DHT22;48673;53.016;-2.258;2022-08-21T11:20:28;21.30;59.20
44533;DHT22;48673;53.016;-2.258;2022-08-21T11:22:58;21.30;59.20
44533;DHT22;48673;53.016;-2.258;2022-08-21T11:25:36;21.40;59.30
44533;DHT22;48673;53.016;-2.258;2022-08-21T11:28:22;21.70;58.90
44533;DHT22;48673;53.016;-2.258;2022-08-21T11:31:38;21.90;58.50
44533;DHT22;48673;53.016;-2.258;2022-08-21T11:36:42;21.60;58.10
44533;DHT22;48673;53.016;-2.258;2022-08-21T11:40:05;21.60;58.10
44533;DHT22;48673;53.016;-2.258;2022-08-21T11:42:24;21.90;58.00
44533;DHT22;48673;53.016;-2.258;2022-08-21T11:47:58;22.50;57.50
44533;DHT22;48673;53.016;-2.258;2022-08-21T11:50:30;22.60;56.60
44533;DHT22;48673;53.016;-2.258;2022-08-21T11:53:30;22.60;56.30
44533;DHT22;48673;53.016;-2.258;2022-08-21T11:56:21;22.60;55.70
44533;DHT22;48673;53.016;-2.258;2022-08-21T11:59:02;22.60;55.20
44533;DHT22;48673;53.016;-2.258;2022-08-21T12:01:36;22.60;55.60
44533;DHT22;48673;53.016;-2.258;2022-08-21T12:04:34;22.70;55.40
44533;DHT22;48673;53.016;-2.258;2022-08-21T12:07:12;22.60;54.90
44533;DHT22;48673;53.016;-2.258;2022-08-21T12:09:52;22.60;55.00
44533;DHT22;48673;53.016;-2.258;2022-08-21T12:12:33;22.60;55.10
44533;DHT22;48673;53.016;-2.258;2022-08-21T12:17:57;22.60;55.90
44533;DHT22;48673;53.016;-2.258;2022-08-21T12:20:32;22.40;55.90
44533;DHT22;48673;53.016;-2.258;2022-08-21T12:28:27;22.10;56.60
44533;DHT22;48673;53.016;-2.258;2022-08-21T12:30:56;21.80;57.60
44533;DHT22;48673;53.016;-2.258;2022-08-21T12:36:01;21.40;58.70
44533;DHT22;48673;53.016;-2.258;2022-08-21T12:38:39;21.20;58.80
44533;DHT22;48673;53.016;-2.258;2022-08-21T12:41:42;21.20;59.10
44533;DHT22;48673;53.016;-2.258;2022-08-21T12:44:14;21.20;59.50
44533;DHT22;48673;53.016;-2.258;2022-08-21T12:46:58;21.40;59.10
44533;DHT22;48673;53.016;-2.258;2022-08-21T12:49:36;21.80;58.10
44533;DHT22;48673;53.016;-2.258;2022-08-21T12:52:19;22.00;57.80
44533;DHT22;48673;53.016;-2.258;2022-08-21T12:54:48;22.40;57.60
44533;DHT22;48673;53.016;-2.258;2022-08-21T12:57:25;23.00;56.70
44533;DHT22;48673;53.016;-2.258;2022-08-21T12:59:59;23.40;55.00
44533;DHT22;48673;53.016;-2.258;2022-08-21T13:02:33;23.50;54.90
44533;DHT22;48673;53.016;-2.258;2022-08-21T13:05:07;23.40;54.50
44533;DHT22;48673;53.016;-2.258;2022-08-21T13:07:46;23.30;54.60
44533;DHT22;48673;53.016;-2.258;2022-08-21T13:10:24;23.10;55.10
44533;DHT22;48673;53.016;-2.258;2022-08-21T13:13:01;23.20;55.40
44533;DHT22;48673;53.016;-2.258;2022-08-21T13:15:40;23.20;55.60
44533;DHT22;48673;53.016;-2.258;2022-08-21T13:18:31;23.70;55.20
44533;DHT22;48673;53.016;-2.258;2022-08-21T13:21:11;24.40;53.90
44533;DHT22;48673;53.016;-2.258;2022-08-21T13:23:40;24.80;53.00
44533;DHT22;48673;53.016;-2.258;2022-08-21T13:26:16;25.30;52.40
44533;DHT22;48673;53.016;-2.258;2022-08-21T13:28:46;25.70;51.50
44533;DHT22;48673;53.016;-2.258;2022-08-21T13:31:29;25.90;50.50
44533;DHT22;48673;53.016;-2.258;2022-08-21T13:33:59;25.90;49.60
44533;DHT22;48673;53.016;-2.258;2022-08-21T13:36:32;25.90;49.40
44533;DHT22;48673;53.016;-2.258;2022-08-21T13:39:04;26.10;49.30
44533;DHT22;48673;53.016;-2.258;2022-08-21T13:41:38;26.30;48.20
44533;DHT22;48673;53.016;-2.258;2022-08-21T13:44:46;26.40;47.90
44533;DHT22;48673;53.016;-2.258;2022-08-21T13:47:13;26.40;47.30
44533;DHT22;48673;53.016;-2.258;2022-08-21T13:49:46;26.00;47.60
44533;DHT22;48673;53.016;-2.258;2022-08-21T13:52:24;25.50;48.20
44533;DHT22;48673;53.016;-2.258;2022-08-21T13:54:55;25.10;49.10
44533;DHT22;48673;53.016;-2.258;2022-08-21T13:57:33;24.90;49.60
44533;DHT22;48673;53.016;-2.258;2022-08-21T14:00:16;24.90;50.20
44533;DHT22;48673;53.016;-2.258;2022-08-21T14:02:47;24.70;50.40
44533;DHT22;48673;53.016;-2.258;2022-08-21T14:05:26;24.70;51.30
44533;DHT22;48673;53.016;-2.258;2022-08-21T14:08:22;25.20;50.70
44533;DHT22;48673;53.016;-2.258;2022-08-21T14:10:57;25.40;49.90
44533;DHT22;48673;53.016;-2.258;2022-08-21T14:13:42;25.70;49.70
44533;DHT22;48673;53.016;-2.258;2022-08-21T14:16:44;26.40;48.90
44533;DHT22;48673;53.016;-2.258;2022-08-21T14:21:48;26.70;47.10
44533;DHT22;48673;53.016;-2.258;2022-08-21T14:29:25;28.40;45.20
44533;DHT22;48673;53.016;-2.258;2022-08-21T14:32:00;28.50;43.60
44533;DHT22;48673;53.016;-2.258;2022-08-21T14:34:52;28.10;43.80
44533;DHT22;48673;53.016;-2.258;2022-08-21T14:37:22;28.00;44.30
44533;DHT22;48673;53.016;-2.258;2022-08-21T14:39:52;28.30;44.20
44533;DHT22;48673;53.016;-2.258;2022-08-21T14:42:36;28.90;43.60
44533;DHT22;48673;53.016;-2.258;2022-08-21T14:45:29;29.40;41.90
44533;DHT22;48673;53.016;-2.258;2022-08-21T14:48:05;29.30;41.20
44533;DHT22;48673;53.016;-2.258;2022-08-21T14:50:41;28.40;41.60
44533;DHT22;48673;53.016;-2.258;2022-08-21T14:53:14;27.40;42.80
44533;DHT22;48673;53.016;-2.258;2022-08-21T14:55:43;26.60;44.10
44533;DHT22;48673;53.016;-2.258;2022-08-21T14:58:29;25.90;45.20
44533;DHT22;48673;53.016;-2.258;2022-08-21T15:00:57;25.80;46.10
44533;DHT22;48673;53.016;-2.258;2022-08-21T15:03:26;25.90;46.30
44533;DHT22;48673;53.016;-2.258;2022-08-21T15:05:53;26.50;46.00
44533;DHT22;48673;53.016;-2.258;2022-08-21T15:08:21;26.80;45.10
44533;DHT22;48673;53.016;-2.258;2022-08-21T15:10:50;26.60;44.80
44533;DHT22;48673;53.016;-2.258;2022-08-21T15:13:38;26.10;45.50
44533;DHT22;48673;53.016;-2.258;2022-08-21T15:16:08;25.50;46.50
44533;DHT22;48673;53.016;-2.258;2022-08-21T15:18:38;25.00;47.40
44533;DHT22;48673;53.016;-2.258;2022-08-21T15:21:06;24.60;48.10
44533;DHT22;48673;53.016;-2.258;2022-08-21T15:23:34;24.60;49.00
44533;DHT22;48673;53.016;-2.258;2022-08-21T15:26:06;25.20;48.70
44533;DHT22;48673;53.016;-2.258;2022-08-21T15:28:34;26.00;47.50
44533;DHT22;48673;53.016;-2.258;2022-08-21T15:31:04;26.20;46.80
44533;DHT22;48673;53.016;-2.258;2022-08-21T15:33:32;25.90;47.00
44533;DHT22;48673;53.016;-2.258;2022-08-21T15:36:00;25.50;47.00
44533;DHT22;48673;53.016;-2.258;2022-08-21T15:38:28;25.20;47.60
44533;DHT22;48673;53.016;-2.258;2022-08-21T15:40:56;25.10;48.20
44533;DHT22;48673;53.016;-2.258;2022-08-21T15:46:00;25.40;47.80
44533;DHT22;48673;53.016;-2.258;2022-08-21T15:48:28;25.60;47.10
44533;DHT22;48673;53.016;-2.258;2022-08-21T15:50:56;25.60;47.20
44533;DHT22;48673;53.016;-2.258;2022-08-21T15:53:24;25.60;47.30
44533;DHT22;48673;53.016;-2.258;2022-08-21T15:55:53;25.60;47.40
44533;DHT22;48673;53.016;-2.258;2022-08-21T15:58:21;25.50;47.40
44533;DHT22;48673;53.016;-2.258;2022-08-21T16:00:49;25.40;47.50
44533;DHT22;48673;53.016;-2.258;2022-08-21T16:03:18;24.90;47.90
44533;DHT22;48673;53.016;-2.258;2022-08-21T16:05:59;24.40;48.80
44533;DHT22;48673;53.016;-2.258;2022-08-21T16:08:27;24.10;49.80
44533;DHT22;48673;53.016;-2.258;2022-08-21T16:10:55;23.90;50.30
44533;DHT22;48673;53.016;-2.258;2022-08-21T16:13:29;23.90;50.70
44533;DHT22;48673;53.016;-2.258;2022-08-21T16:15:59;23.90;50.90
44533;DHT22;48673;53.016;-2.258;2022-08-21T16:18:27;23.60;51.30
44533;DHT22;48673;53.016;-2.258;2022-08-21T16:20:55;23.50;52.20
44533;DHT22;48673;53.016;-2.258;2022-08-21T16:23:23;23.40;52.40
44533;DHT22;48673;53.016;-2.258;2022-08-21T16:25:51;23.40;53.00
44533;DHT22;48673;53.016;-2.258;2022-08-21T16:28:20;23.60;53.10
44533;DHT22;48673;53.016;-2.258;2022-08-21T16:30:50;23.90;52.50
44533;DHT22;48673;53.016;-2.258;2022-08-21T16:33:43;24.10;52.00
44533;DHT22;48673;53.016;-2.258;2022-08-21T16:36:11;24.60;50.90
44533;DHT22;48673;53.016;-2.258;2022-08-21T16:38:40;24.90;50.40
44533;DHT22;48673;53.016;-2.258;2022-08-21T16:41:12;24.90;50.50
44533;DHT22;48673;53.016;-2.258;2022-08-21T16:43:41;24.70;50.30
44533;DHT22;48673;53.016;-2.258;2022-08-21T16:46:10;24.40;51.10
44533;DHT22;48673;53.016;-2.258;2022-08-21T16:48:39;24.20;51.60
44533;DHT22;48673;53.016;-2.258;2022-08-21T16:51:07;24.00;52.00
44533;DHT22;48673;53.016;-2.258;2022-08-21T16:53:35;23.80;52.30
44533;DHT22;48673;53.016;-2.258;2022-08-21T16:56:05;23.60;52.80
44533;DHT22;48673;53.016;-2.258;2022-08-21T16:58:36;23.40;53.00
44533;DHT22;48673;53.016;-2.258;2022-08-21T17:01:07;23.30;53.40
44533;DHT22;48673;53.016;-2.258;2022-08-21T17:03:39;23.20;54.60
44533;DHT22;48673;53.016;-2.258;2022-08-21T17:06:07;23.00;54.60
44533;DHT22;48673;53.016;-2.258;2022-08-21T17:08:35;22.90;55.10
44533;DHT22;48673;53.016;-2.258;2022-08-21T17:11:34;22.80;57.00
44533;DHT22;48673;53.016;-2.258;2022-08-21T17:14:14;22.90;57.60
44533;DHT22;48673;53.016;-2.258;2022-08-21T17:16:45;23.00;56.50